Time;durP1;ratioP1;P1;durP2;ratioP2;P2;SDS_P1;SDS_P2;PMS_P1;PMS_P2;Temp;Humidity;BMP_temperature;BMP_pressure;BME280_temperature;BME280_humidity;BME280_pressure;Samples;Min_cycle;Max_cycle;Signal;HPM_P1;HPM_P2
2021/11/29 00:01:36;;;;;;;16.13;10.45;;;;;;;6.79;60.25;100128.19;4860839;29;20034;-92
2021/11/29 00:04:02;;;;;;;13.52;9.48;;;;;;;6.88;60.18;100137.28;4860802;29;20029;-92
2021/11/29 00:06:28;;;;;;;15.80;10.73;;;;;;;6.86;60.44;100142.59;4860458;29;20045;-93
2021/11/29 00:08:53;;;;;;;15.38;11.00;;;;;;;6.94;60.06;100142.97;4860773;29;20029;-92
2021/11/29 00:11:19;;;;;;;16.25;11.38;;;;;;;6.92;60.20;100147.44;4860735;29;20030;-91
2021/11/29 00:13:45;;;;;;;16.95;10.85;;;;;;;6.89;60.01;100152.88;4860618;29;20025;-92
2021/11/29 00:16:10;;;;;;;14.48;10.13;;;;;;;6.93;59.96;100148.28;4860882;29;20611;-93
2021/11/29 00:18:36;;;;;;;14.23;10.23;;;;;;;6.77;60.03;100140.47;4859257;29;20033;-93
2021/11/29 00:21:03;;;;;;;16.10;11.73;;;;;;;6.90;60.41;100143.25;4858208;29;20040;-93
2021/11/29 00:23:29;;;;;;;15.63;11.25;;;;;;;7.04;60.10;100142.47;4858305;29;20059;-92
2021/11/29 00:25:54;;;;;;;18.65;12.48;;;;;;;6.91;60.08;100137.97;4859980;29;20037;-92
2021/11/29 00:28:20;;;;;;;14.60;10.38;;;;;;;7.05;59.43;100138.91;4860475;29;20030;-92
2021/11/29 00:30:46;;;;;;;15.90;11.73;;;;;;;7.11;59.70;100144.63;4860505;29;20042;-93
2021/11/29 00:33:13;;;;;;;17.20;11.68;;;;;;;7.18;59.93;100144.28;4860089;29;20029;-92
2021/11/29 00:35:38;;;;;;;15.48;11.45;;;;;;;7.15;59.49;100146.16;4859939;29;20408;-92
2021/11/29 00:38:06;;;;;;;15.90;11.93;;;;;;;7.18;59.76;100149.50;4859867;29;20030;-92
2021/11/29 00:40:32;;;;;;;16.55;11.18;;;;;;;7.27;58.85;100151.59;4858876;29;20385;-93
2021/11/29 00:42:57;;;;;;;13.10;9.93;;;;;;;7.26;59.19;100155.94;4860011;29;20055;-91
2021/11/29 00:45:23;;;;;;;14.38;10.85;;;;;;;7.17;59.22;100158.25;4860302;29;20702;-91
2021/11/29 00:47:49;;;;;;;13.10;9.27;;;;;;;7.07;59.10;100164.03;4860270;29;20040;-92
2021/11/29 00:50:17;;;;;;;12.82;7.45;;;;;;;7.07;59.51;100165.78;4860185;29;20399;-92
2021/11/29 00:52:43;;;;;;;9.95;7.47;;;;;;;6.97;58.45;100177.66;4860378;29;20464;-92
2021/11/29 00:55:10;;;;;;;8.00;6.07;;;;;;;7.04;58.57;100176.41;4860430;29;20477;-92
2021/11/29 00:57:35;;;;;;;8.65;6.57;;;;;;;6.85;59.19;100179.19;4860171;29;20061;-92
2021/11/29 01:00:04;;;;;;;8.85;5.47;;;;;;;6.91;58.46;100178.84;4860134;29;20117;-92
2021/11/29 01:02:29;;;;;;;7.78;6.15;;;;;;;6.72;58.30;100187.72;4860130;29;20441;-91
2021/11/29 01:04:54;;;;;;;9.45;6.75;;;;;;;6.69;58.63;100190.47;4859393;29;20034;-91
2021/11/29 01:07:20;;;;;;;8.27;5.88;;;;;;;6.62;58.68;100189.16;4860003;29;20480;-92
2021/11/29 01:09:45;;;;;;;8.35;5.60;;;;;;;6.71;58.73;100178.22;4859901;29;20038;-91
2021/11/29 01:12:11;;;;;;;8.13;6.22;;;;;;;6.73;58.54;100176.38;4859824;29;20029;-91
2021/11/29 01:14:36;;;;;;;9.55;6.18;;;;;;;6.65;59.03;100188.97;4859917;29;20503;-92
2021/11/29 01:17:03;;;;;;;10.85;7.25;;;;;;;6.53;59.71;100187.88;4859865;29;20044;-92
2021/11/29 01:19:28;;;;;;;11.95;7.40;;;;;;;6.63;59.38;100188.22;4859262;29;20282;-93
2021/11/29 01:21:54;;;;;;;10.68;7.28;;;;;;;6.54;59.06;100186.13;4859870;29;20281;-92
2021/11/29 01:24:19;;;;;;;10.25;7.32;;;;;;;6.42;59.12;100186.78;4858751;29;20090;-92
2021/11/29 01:26:45;;;;;;;11.48;7.38;;;;;;;6.34;59.19;100195.03;4859726;29;20551;-92
2021/11/29 01:29:10;;;;;;;9.18;6.80;;;;;;;6.39;59.54;100207.81;4859782;29;20040;-92
2021/11/29 01:31:35;;;;;;;9.60;6.97;;;;;;;6.32;59.63;100210.75;4860356;29;20476;-92
2021/11/29 01:34:01;;;;;;;10.27;6.25;;;;;;;6.32;59.91;100202.09;4859337;29;20030;-92
2021/11/29 01:36:26;;;;;;;9.85;6.97;;;;;;;6.29;59.70;100202.25;4859141;29;20025;-92
2021/11/29 01:38:52;;;;;;;10.25;6.95;;;;;;;6.33;59.55;100203.78;4862806;29;20029;-92
2021/11/29 01:41:17;;;;;;;10.65;6.95;;;;;;;6.35;59.76;100207.97;4863218;29;20097;-93
2021/11/29 01:43:46;;;;;;;10.43;7.18;;;;;;;6.24;59.64;100201.66;4863096;29;20045;-92
2021/11/29 01:46:12;;;;;;;8.27;6.55;;;;;;;6.30;59.62;100210.00;4863376;29;20029;-92
2021/11/29 01:48:38;;;;;;;10.25;7.63;;;;;;;6.30;59.36;100199.56;4863123;29;20161;-91
2021/11/29 01:51:04;;;;;;;11.45;8.15;;;;;;;6.21;59.42;100199.22;4862886;29;20029;-92
2021/11/29 01:53:31;;;;;;;12.35;7.85;;;;;;;6.18;59.55;100200.22;4862947;29;20022;-92
2021/11/29 01:55:58;;;;;;;15.77;8.20;;;;;;;6.04;59.64;100198.34;4862933;29;20033;-91
2021/11/29 01:58:25;;;;;;;10.63;8.02;;;;;;;6.14;59.53;100199.56;4863037;29;20113;-91
2021/11/29 02:00:53;;;;;;;16.15;7.68;;;;;;;5.98;59.72;100198.66;4863027;29;20026;-92
2021/11/29 02:03:23;;;;;;;11.60;7.32;;;;;;;6.04;60.53;100197.50;4861417;29;20515;-92
2021/11/29 02:05:48;;;;;;;10.68;7.53;;;;;;;5.98;60.10;100195.22;4862327;29;20078;-91
2021/11/29 02:08:14;;;;;;;11.43;7.45;;;;;;;6.04;60.23;100202.69;4862198;29;20041;-91
2021/11/29 02:10:39;;;;;;;11.23;7.43;;;;;;;5.91;60.08;100203.31;4861574;29;20033;-92
2021/11/29 02:13:05;;;;;;;9.70;7.53;;;;;;;5.96;60.38;100205.72;4862473;29;20085;-91
2021/11/29 02:15:31;;;;;;;10.50;6.75;;;;;;;5.92;59.84;100205.00;4862670;29;20392;-92
2021/11/29 02:17:59;;;;;;;11.52;7.80;;;;;;;5.85;60.67;100214.06;4862511;29;20031;-92
2021/11/29 02:20:33;;;;;;;11.23;7.85;;;;;;;5.85;60.71;100213.22;4862519;29;20064;-92
2021/11/29 02:23:00;;;;;;;9.13;6.85;;;;;;;5.95;60.42;100223.13;4861627;29;20029;-91
2021/11/29 02:25:25;;;;;;;11.05;8.60;;;;;;;5.94;60.56;100233.56;4861888;29;20054;-92
2021/11/29 02:27:52;;;;;;;10.43;7.65;;;;;;;5.84;60.29;100230.59;4862619;29;20441;-91
2021/11/29 02:30:20;;;;;;;10.88;7.80;;;;;;;5.87;60.60;100233.06;4862446;29;20030;-92
2021/11/29 02:32:45;;;;;;;10.00;6.93;;;;;;;5.98;60.17;100239.50;4862236;29;20025;-92
2021/11/29 02:35:11;;;;;;;13.68;8.13;;;;;;;5.69;60.63;100244.44;4862334;29;20061;-91
2021/11/29 02:37:37;;;;;;;10.77;7.45;;;;;;;5.92;60.74;100248.44;4861813;29;20395;-92
2021/11/29 02:40:04;;;;;;;10.40;7.82;;;;;;;5.95;60.04;100253.56;4861956;29;20029;-92
2021/11/29 02:42:29;;;;;;;11.85;7.65;;;;;;;5.90;59.99;100253.72;4862100;29;20044;-91
2021/11/29 02:44:55;;;;;;;10.13;7.85;;;;;;;5.91;60.10;100254.59;4862118;29;20421;-91
2021/11/29 02:47:20;;;;;;;9.25;6.65;;;;;;;5.88;59.80;100250.38;4862079;29;20029;-92
2021/11/29 02:49:46;;;;;;;10.77;7.07;;;;;;;5.76;59.65;100253.59;4861589;29;20033;-91
2021/11/29 02:52:13;;;;;;;12.00;7.45;;;;;;;5.82;60.51;100255.06;4861625;29;20113;-92
2021/11/29 02:54:40;;;;;;;11.75;7.47;;;;;;;5.84;59.92;100254.06;4861897;29;20037;-91
2021/11/29 02:57:12;;;;;;;11.63;7.93;;;;;;;5.88;59.79;100242.56;4861866;29;20112;-92
2021/11/29 02:59:39;;;;;;;11.93;7.15;;;;;;;5.88;60.07;100237.34;4861542;29;20041;-91
2021/11/29 03:02:09;;;;;;;11.02;7.75;;;;;;;5.90;59.62;100245.91;4861612;29;20072;-91
2021/11/29 03:04:36;;;;;;;10.45;7.18;;;;;;;5.88;59.75;100250.38;4861770;29;20030;-92
2021/11/29 03:07:03;;;;;;;10.55;7.05;;;;;;;5.82;60.02;100247.25;4861252;29;20025;-92
2021/11/29 03:09:29;;;;;;;9.52;7.15;;;;;;;5.80;59.75;100242.09;4861189;29;20044;-91
2021/11/29 03:11:55;;;;;;;10.35;7.78;;;;;;;5.77;59.60;100247.47;4861673;29;20025;-91
2021/11/29 03:14:21;;;;;;;10.80;7.57;;;;;;;5.82;59.78;100253.28;4861203;29;20034;-92
2021/11/29 03:16:48;;;;;;;8.48;6.35;;;;;;;5.71;59.41;100255.63;4861328;29;20026;-93
2021/11/29 03:19:13;;;;;;;9.98;7.10;;;;;;;5.74;59.86;100250.22;4861543;29;20116;-91
2021/11/29 03:21:38;;;;;;;8.93;7.05;;;;;;;5.63;59.70;100263.81;4861371;29;20432;-92
2021/11/29 03:24:08;;;;;;;10.07;7.13;;;;;;;5.71;59.77;100260.81;4860862;29;20523;-92
2021/11/29 03:26:35;;;;;;;9.32;6.90;;;;;;;5.74;59.37;100273.69;4861077;29;20095;-91
2021/11/29 03:29:13;;;;;;;8.70;6.20;;;;;;;5.68;59.35;100274.00;4861323;29;20479;-92
2021/11/29 03:31:40;;;;;;;8.45;6.18;;;;;;;5.63;59.77;100276.81;4861235;29;20541;-92
2021/11/29 03:34:09;;;;;;;9.25;6.78;;;;;;;5.68;59.20;100274.81;4861090;29;20085;-91
2021/11/29 03:36:37;;;;;;;8.60;6.25;;;;;;;5.71;59.34;100279.06;4861129;29;20090;-91
2021/11/29 03:39:06;;;;;;;8.23;5.88;;;;;;;5.71;59.12;100282.50;4860639;29;20062;-92
2021/11/29 03:41:31;;;;;;;8.98;6.25;;;;;;;5.66;59.51;100275.81;4859705;29;20053;-92
2021/11/29 03:43:57;;;;;;;8.70;5.97;;;;;;;5.48;60.02;100278.41;4861100;29;20441;-92
2021/11/29 03:46:22;;;;;;;9.95;6.60;;;;;;;5.51;59.48;100278.28;4861038;29;20034;-92
2021/11/29 03:48:48;;;;;;;9.50;6.32;;;;;;;5.55;59.82;100276.38;4861015;29;20021;-92
2021/11/29 03:51:14;;;;;;;8.55;6.05;;;;;;;5.57;59.69;100288.38;4860805;29;20033;-92
2021/11/29 03:53:39;;;;;;;8.93;6.47;;;;;;;5.54;59.25;100298.94;4860147;29;20086;-92
2021/11/29 03:56:05;;;;;;;9.00;6.40;;;;;;;5.56;59.15;100296.28;4860831;29;20026;-91
2021/11/29 03:58:30;;;;;;;9.48;6.85;;;;;;;5.53;59.19;100301.66;4860475;29;20029;-92
2021/11/29 04:00:56;;;;;;;9.23;7.15;;;;;;;5.51;59.09;100308.66;4859935;29;20048;-92
2021/11/29 04:03:21;;;;;;;11.88;7.53;;;;;;;5.48;59.27;100309.66;4860656;29;20030;-92
2021/11/29 04:05:47;;;;;;;11.35;7.65;;;;;;;5.43;59.10;100311.66;4860486;29;20033;-91
2021/11/29 04:08:13;;;;;;;8.70;6.53;;;;;;;5.44;59.36;100317.72;4860479;29;20060;-92
2021/11/29 04:10:39;;;;;;;14.00;7.20;;;;;;;5.40;59.20;100310.97;4860094;29;20484;-91
2021/11/29 04:13:04;;;;;;;9.25;6.88;;;;;;;5.42;59.08;100312.56;4860301;29;20071;-92
2021/11/29 04:15:30;;;;;;;9.15;6.57;;;;;;;5.36;59.15;100320.66;4860434;29;20025;-91
2021/11/29 04:17:55;;;;;;;12.90;7.25;;;;;;;5.34;59.41;100317.31;4860314;29;20036;-92
2021/11/29 04:20:21;;;;;;;10.93;7.65;;;;;;;5.32;59.42;100319.97;4860344;29;20606;-91
2021/11/29 04:22:48;;;;;;;9.55;7.05;;;;;;;5.27;59.48;100321.97;4860079;29;20532;-92
2021/11/29 04:25:17;;;;;;;9.30;6.18;;;;;;;5.31;59.45;100322.63;4858939;29;20041;-91
2021/11/29 04:27:44;;;;;;;8.90;6.43;;;;;;;5.28;59.34;100322.81;4860137;29;20034;-91
2021/11/29 04:30:16;;;;;;;8.82;6.65;;;;;;;5.27;58.59;100334.13;4860159;29;20030;-91
2021/11/29 04:32:41;;;;;;;;;;;;;;;5.28;59.10;100328.84;4860521;29;20041;-91
2021/11/29 04:35:07;;;;;;;8.70;6.00;;;;;;;5.28;59.17;100328.00;4859995;29;20301;-92
2021/11/29 04:37:33;;;;;;;9.95;6.70;;;;;;;5.27;59.11;100323.69;4860101;29;20036;-91
2021/11/29 04:39:58;;;;;;;8.50;5.88;;;;;;;5.20;58.56;100333.56;4859570;29;20030;-91
2021/11/29 04:42:23;;;;;;;9.02;6.13;;;;;;;5.26;58.99;100341.09;4859988;29;20574;-91
2021/11/29 04:44:49;;;;;;;9.35;6.38;;;;;;;5.27;59.33;100334.97;4860220;29;20060;-91
2021/11/29 04:47:14;;;;;;;8.30;5.82;;;;;;;5.25;58.78;100338.56;4860206;29;20032;-92
2021/11/29 04:49:40;;;;;;;7.88;5.97;;;;;;;5.26;59.28;100335.88;4860165;29;20112;-91
2021/11/29 04:52:05;;;;;;;8.48;5.85;;;;;;;5.27;58.82;100332.38;4859948;29;20033;-91
2021/11/29 04:54:31;;;;;;;9.27;5.80;;;;;;;5.24;58.79;100334.28;4859835;29;20085;-91
2021/11/29 04:56:56;;;;;;;8.65;6.25;;;;;;;5.25;58.46;100344.63;4859929;29;20025;-91
2021/11/29 04:59:22;;;;;;;9.70;6.25;;;;;;;5.23;58.48;100340.38;4860145;29;20029;-91
2021/11/29 05:01:47;;;;;;;8.82;6.53;;;;;;;5.15;58.06;100336.41;4859261;29;20041;-91
2021/11/29 05:04:13;;;;;;;10.35;6.78;;;;;;;5.21;58.74;100344.81;4859842;29;20025;-91
2021/11/29 05:06:38;;;;;;;10.50;6.63;;;;;;;5.15;58.50;100343.34;4859967;29;20432;-92
2021/11/29 05:09:11;;;;;;;9.82;6.47;;;;;;;5.14;58.31;100346.88;4860033;29;20096;-91
2021/11/29 05:11:37;;;;;;;12.02;6.95;;;;;;;5.00;58.64;100346.69;4859560;29;20480;-92
2021/11/29 05:14:03;;;;;;;10.75;7.25;;;;;;;4.99;58.47;100351.00;4859934;29;20044;-92
2021/11/29 05:16:30;;;;;;;7.90;6.20;;;;;;;4.99;58.80;100358.81;4859701;29;20034;-90
2021/11/29 05:18:55;;;;;;;8.60;5.85;;;;;;;4.95;58.49;100352.06;4859838;29;20081;-90
2021/11/29 05:21:21;;;;;;;8.98;6.20;;;;;;;4.96;58.69;100358.97;4859736;29;20033;-92
2021/11/29 05:23:48;;;;;;;10.80;6.90;;;;;;;4.99;58.88;100364.03;4859994;29;20033;-90
2021/11/29 05:26:19;;;;;;;8.85;6.22;;;;;;;5.00;58.94;100365.72;4859363;29;20641;-91
2021/11/29 05:28:44;;;;;;;9.27;6.77;;;;;;;4.98;58.60;100362.34;4860009;29;20048;-91
2021/11/29 05:31:09;;;;;;;9.65;6.78;;;;;;;5.00;58.97;100368.31;4859728;29;20396;-92
2021/11/29 05:33:35;;;;;;;9.40;6.78;;;;;;;5.00;58.84;100380.50;4859673;29;20034;-92
2021/11/29 05:36:00;;;;;;;9.43;7.03;;;;;;;4.97;58.55;100381.47;4859985;29;20030;-92
2021/11/29 05:38:26;;;;;;;12.02;7.18;;;;;;;4.98;58.87;100390.97;4860596;29;20034;-92
2021/11/29 05:40:51;;;;;;;8.70;6.13;;;;;;;4.99;59.29;100384.84;4860414;29;20480;-92
2021/11/29 05:43:16;;;;;;;10.02;7.00;;;;;;;4.99;58.57;100390.03;4860488;29;20037;-92
2021/11/29 05:45:42;;;;;;;10.90;7.43;;;;;;;4.99;58.90;100395.25;4860448;29;20029;-91
2021/11/29 05:48:07;;;;;;;8.48;6.10;;;;;;;4.82;59.46;100392.53;4860746;29;20034;-91
2021/11/29 05:50:33;;;;;;;10.10;6.97;;;;;;;4.98;59.19;100401.38;4860649;29;20076;-91
2021/11/29 05:52:58;;;;;;;10.32;6.47;;;;;;;5.02;58.88;100402.94;4860685;29;20039;-91
2021/11/29 05:55:23;;;;;;;10.55;6.50;;;;;;;5.05;58.53;100394.97;4859696;29;20097;-90
2021/11/29 05:57:49;;;;;;;9.35;6.50;;;;;;;5.06;58.97;100403.66;4860008;29;20472;-92
2021/11/29 06:00:17;;;;;;;10.02;6.68;;;;;;;5.03;58.29;100407.22;4860539;29;20057;-92
2021/11/29 06:02:43;;;;;;;8.82;5.65;;;;;;;4.99;58.47;100408.25;4859418;29;20036;-91
2021/11/29 06:05:10;;;;;;;9.40;6.75;;;;;;;5.00;58.79;100412.56;4860383;29;20033;-91
2021/11/29 06:07:36;;;;;;;8.93;5.93;;;;;;;4.97;58.32;100413.53;4860648;29;20033;-92
2021/11/29 06:10:03;;;;;;;9.85;7.03;;;;;;;4.98;58.16;100414.41;4860506;29;20029;-91
2021/11/29 06:12:28;;;;;;;7.88;5.78;;;;;;;4.99;58.35;100425.63;4860242;29;20392;-92
2021/11/29 06:14:54;;;;;;;7.13;5.25;;;;;;;4.94;58.26;100428.47;4860662;29;20037;-92
2021/11/29 06:17:19;;;;;;;8.57;5.95;;;;;;;4.92;58.47;100431.13;4859465;29;20040;-92
2021/11/29 06:19:44;;;;;;;8.30;6.18;;;;;;;4.89;58.72;100430.41;4860561;29;20399;-92
2021/11/29 06:22:10;;;;;;;9.20;5.72;;;;;;;4.84;59.00;100432.34;4860490;29;20483;-92
2021/11/29 06:24:35;;;;;;;10.25;7.10;;;;;;;4.80;59.01;100425.59;4862680;29;20030;-92
2021/11/29 06:27:00;;;;;;;8.70;6.45;;;;;;;4.73;59.42;100436.25;4863272;29;20058;-92
2021/11/29 06:29:26;;;;;;;10.43;7.43;;;;;;;4.64;60.28;100441.88;4863487;29;20040;-91
2021/11/29 06:31:51;;;;;;;8.77;5.82;;;;;;;4.66;60.20;100445.25;4863338;29;20116;-91
2021/11/29 06:34:17;;;;;;;8.98;6.22;;;;;;;4.70;59.91;100451.16;4862962;29;20068;-91
2021/11/29 06:36:42;;;;;;;8.77;5.97;;;;;;;4.69;59.95;100446.88;4863320;29;20472;-92
2021/11/29 06:39:08;;;;;;;8.05;6.20;;;;;;;4.72;60.03;100446.72;4863383;29;20105;-91
2021/11/29 06:41:33;;;;;;;7.55;5.32;;;;;;;4.75;60.37;100455.25;4863241;29;20084;-92
2021/11/29 06:43:59;;;;;;;8.38;5.65;;;;;;;4.77;59.81;100456.03;4862518;29;20490;-89
2021/11/29 06:46:24;;;;;;;7.32;5.72;;;;;;;4.79;59.68;100455.13;4862028;29;20527;-90
2021/11/29 06:48:50;;;;;;;7.03;5.32;;;;;;;4.80;60.17;100462.00;4865376;29;20025;-92
2021/11/29 06:51:16;;;;;;;9.32;5.13;;;;;;;4.80;60.17;100459.41;4897408;23;20449;-94
2021/11/29 06:53:42;;;;;;;8.80;5.68;;;;;;;4.81;59.82;100459.34;4842410;29;20073;-88
2021/11/29 06:56:08;;;;;;;7.95;5.53;;;;;;;4.86;60.31;100457.41;4842950;29;20030;-90
2021/11/29 06:58:35;;;;;;;7.15;5.32;;;;;;;4.87;60.16;100458.25;4842922;29;20025;-88
2021/11/29 07:01:01;;;;;;;7.40;5.32;;;;;;;4.90;60.25;100458.13;4842690;29;20119;-89
2021/11/29 07:03:27;;;;;;;8.93;5.57;;;;;;;4.92;60.46;100457.13;4842719;29;20442;-90
2021/11/29 07:05:53;;;;;;;7.65;5.50;;;;;;;4.98;60.23;100456.03;4842951;29;20057;-90
2021/11/29 07:08:18;;;;;;;7.93;5.50;;;;;;;4.89;60.61;100472.03;4841937;29;20507;-88
2021/11/29 07:10:44;;;;;;;8.98;6.13;;;;;;;5.12;60.17;100469.25;4841949;29;20042;-91
2021/11/29 07:13:12;;;;;;;8.88;6.13;;;;;;;5.22;59.81;100469.72;4842996;29;20044;-87
2021/11/29 07:15:39;;;;;;;7.07;5.40;;;;;;;5.28;60.17;100476.41;4842519;29;20428;-87
2021/11/29 07:18:05;;;;;;;9.00;5.75;;;;;;;5.34;59.86;100470.91;4842816;29;20081;-87
2021/11/29 07:20:31;;;;;;;7.88;5.55;;;;;;;5.36;60.26;100482.09;4842688;29;20022;-88
2021/11/29 07:22:57;;;;;;;6.63;4.95;;;;;;;5.36;60.17;100482.09;4842699;29;20030;-88
2021/11/29 07:25:23;;;;;;;7.72;5.68;;;;;;;5.35;60.15;100480.41;4842206;29;20082;-88
2021/11/29 07:27:49;;;;;;;7.85;5.75;;;;;;;5.46;59.92;100482.53;4842777;29;20038;-88
2021/11/29 07:30:17;;;;;;;5.15;4.35;;;;;;;5.51;59.84;100490.97;4842161;29;20101;-90
2021/11/29 07:32:43;;;;;;;7.70;5.32;;;;;;;5.46;59.96;100488.56;4842402;29;20602;-88
2021/11/29 07:35:10;;;;;;;9.45;4.85;;;;;;;5.58;59.30;100492.38;4841480;29;20389;-88
2021/11/29 07:37:36;;;;;;;6.82;4.88;;;;;;;5.63;59.28;100485.22;4843185;29;20067;-90
2021/11/29 07:40:03;;;;;;;6.32;5.07;;;;;;;5.57;59.33;100488.09;4841821;29;20034;-87
2021/11/29 07:42:30;;;;;;;5.40;4.45;;;;;;;5.57;59.56;100488.94;4842717;29;20121;-88
2021/11/29 07:44:55;;;;;;;9.63;5.07;;;;;;;5.60;59.19;100492.31;4842314;29;20038;-87
2021/11/29 07:47:24;;;;;;;7.75;6.00;;;;;;;5.67;58.89;100486.75;4842296;29;20075;-89
2021/11/29 07:49:51;;;;;;;9.45;6.40;;;;;;;5.64;59.05;100493.88;4842597;29;20500;-87
2021/11/29 07:52:16;;;;;;;8.30;5.90;;;;;;;5.64;58.93;100496.47;4852965;29;20121;-89
2021/11/29 07:54:43;;;;;;;9.00;6.45;;;;;;;5.56;58.85;100495.06;4852299;29;20063;-88
2021/11/29 07:57:10;;;;;;;10.02;6.30;;;;;;;5.63;59.07;100494.75;4850554;29;20029;-88
2021/11/29 07:59:36;;;;;;;7.15;5.03;;;;;;;5.54;58.79;100499.50;4848094;29;20030;-91
2021/11/29 08:02:01;;;;;;;11.32;7.10;;;;;;;5.43;59.36;100493.06;4846936;29;20433;-89
2021/11/29 08:04:26;;;;;;;9.10;6.60;;;;;;;5.55;58.72;100503.78;4849594;29;20049;-88
2021/11/29 08:06:52;;;;;;;9.85;7.18;;;;;;;5.46;59.44;100509.41;4841171;29;20030;-92
2021/11/29 08:09:18;;;;;;;12.05;7.10;;;;;;;5.38;59.07;100508.06;4841070;29;20038;-88
2021/11/29 08:11:43;;;;;;;10.57;7.35;;;;;;;5.41;59.17;100516.59;4842101;29;20030;-89
2021/11/29 08:14:09;;;;;;;10.45;6.93;;;;;;;5.48;59.56;100511.94;4842400;29;20081;-88
2021/11/29 08:16:34;;;;;;;13.98;7.82;;;;;;;5.52;59.17;100516.94;4846253;29;20499;-89
2021/11/29 08:18:59;;;;;;;9.90;7.65;;;;;;;5.54;59.38;100519.50;4852195;29;20026;-87
2021/11/29 08:21:25;;;;;;;10.05;7.30;;;;;;;5.49;59.33;100518.84;4842297;29;20026;-90
2021/11/29 08:23:50;;;;;;;11.48;7.95;;;;;;;5.53;59.02;100523.03;4840473;29;20071;-89
2021/11/29 08:26:16;;;;;;;14.35;9.32;;;;;;;5.58;58.17;100523.63;4855728;29;20036;-90
2021/11/29 08:28:41;;;;;;;11.07;6.95;;;;;;;5.48;58.82;100527.56;4844863;29;20647;-89
2021/11/29 08:31:07;;;;;;;8.90;5.93;;;;;;;5.56;58.78;100521.09;4843143;29;20062;-90
2021/11/29 08:33:32;;;;;;;5.93;4.47;;;;;;;5.57;58.71;100525.41;4854141;29;20520;-91
2021/11/29 08:35:57;;;;;;;7.38;4.80;;;;;;;5.66;58.39;100528.50;4852400;29;20049;-91
2021/11/29 08:38:23;;;;;;;6.05;4.57;;;;;;;5.67;58.92;100527.59;4852701;29;20026;-95
2021/11/29 08:40:51;;;;;;;9.07;6.18;;;;;;;5.64;59.16;100528.56;4858817;29;20483;-96
2021/11/29 08:43:19;;;;;;;12.23;7.47;;;;;;;5.69;59.24;100538.81;4855095;29;20532;-96
2021/11/29 08:45:49;;;;;;;10.85;7.53;;;;;;;5.86;59.18;100532.78;4906971;23;20045;-94
2021/11/29 08:48:15;;;;;;;11.50;8.07;;;;;;;5.99;58.97;100520.91;4864250;29;20033;-96
2021/11/29 08:50:46;;;;;;;10.60;7.82;;;;;;;6.10;58.70;100534.31;4863391;29;20029;-96
2021/11/29 08:53:15;;;;;;;12.65;8.85;;;;;;;6.21;58.68;100540.75;4865009;29;20053;-96
2021/11/29 08:55:41;;;;;;;11.25;6.70;;;;;;;6.01;59.56;100536.50;4863904;29;20029;-96
2021/11/29 08:58:09;;;;;;;10.60;6.82;;;;;;;6.14;58.31;100537.59;4861258;29;20032;-90
2021/11/29 09:00:36;;;;;;;10.27;6.93;;;;;;;6.31;58.24;100529.81;4859509;29;20472;-90
2021/11/29 09:03:06;;;;;;;8.23;6.13;;;;;;;6.40;58.22;100538.09;4859381;29;20049;-90
2021/11/29 09:05:32;;;;;;;7.72;5.45;;;;;;;6.44;58.31;100539.66;4859646;29;20053;-91
2021/11/29 09:07:58;;;;;;;12.55;6.03;;;;;;;6.54;58.00;100546.97;4858265;29;20029;-92
2021/11/29 09:10:23;;;;;;;9.52;6.22;;;;;;;6.63;57.84;100545.66;4858730;29;20491;-89
2021/11/29 09:12:49;;;;;;;10.55;6.97;;;;;;;6.80;57.70;100551.81;4858037;29;20049;-89
2021/11/29 09:15:16;;;;;;;9.05;6.03;;;;;;;6.87;57.85;100548.81;4859068;29;20038;-89
2021/11/29 09:17:42;;;;;;;10.35;7.55;;;;;;;7.01;57.76;100549.88;4858723;29;20143;-91
2021/11/29 09:20:16;;;;;;;11.02;7.72;;;;;;;7.18;58.08;100551.63;4858576;29;20108;-92
2021/11/29 09:22:42;;;;;;;9.35;6.97;;;;;;;7.03;56.37;100545.41;4856505;29;20484;-95
2021/11/29 09:25:08;;;;;;;9.93;6.97;;;;;;;7.09;57.56;100560.75;4859596;29;20036;-93
2021/11/29 09:27:34;;;;;;;11.30;7.18;;;;;;;7.20;56.64;100558.47;4859677;29;20029;-94
2021/11/29 09:30:00;;;;;;;8.65;6.65;;;;;;;7.09;57.44;100561.63;4859225;29;20428;-91
2021/11/29 09:32:26;;;;;;;9.05;6.20;;;;;;;7.28;56.83;100563.28;4859085;29;20048;-95
2021/11/29 09:34:51;;;;;;;11.40;7.70;;;;;;;7.30;56.34;100567.50;4861154;29;20082;-92
2021/11/29 09:39:52;;;;;;;9.80;7.00;;;;;;;7.62;56.41;100551.06;5520092;23;20049;-96
2021/11/29 09:42:17;;;;;;;10.05;7.43;;;;;;;7.73;56.48;100559.19;4868458;29;20033;-96
2021/11/29 09:44:43;;;;;;;11.23;6.85;;;;;;;7.83;56.65;100562.16;4850891;29;20073;-94
2021/11/29 09:47:10;;;;;;;9.75;7.43;;;;;;;7.88;56.72;100574.06;4841974;29;20100;-93
2021/11/29 09:49:36;;;;;;;11.60;7.28;;;;;;;7.96;55.97;100571.03;4841860;29;20038;-93
2021/11/29 09:52:01;;;;;;;9.70;6.82;;;;;;;8.17;56.29;100573.38;4841801;29;20045;-93
2021/11/29 09:54:29;;;;;;;9.25;6.88;;;;;;;8.33;55.99;100575.06;4843446;29;20034;-93
2021/11/29 09:56:54;;;;;;;9.15;6.32;;;;;;;8.52;55.96;100579.28;4844052;29;20453;-95
2021/11/29 09:59:23;;;;;;;10.52;7.50;;;;;;;8.76;55.61;100592.75;4842076;29;20053;-92
2021/11/29 10:01:53;;;;;;;9.98;7.50;;;;;;;9.04;54.37;100584.13;4838794;29;20034;-93
2021/11/29 10:04:19;;;;;;;12.10;7.65;;;;;;;9.18;53.98;100592.97;4844522;29;20030;-95
2021/11/29 10:06:48;;;;;;;13.85;8.02;;;;;;;9.62;53.23;100595.53;4842974;29;20369;-93
2021/11/29 10:09:35;;;;;;;10.23;7.25;;;;;;;10.19;52.53;100592.03;4844463;29;20030;-92
2021/11/29 10:12:09;;;;;;;9.32;6.63;;;;;;;10.85;51.22;100585.16;4844056;29;20030;-92
2021/11/29 10:14:36;;;;;;;8.48;6.63;;;;;;;11.26;50.98;100583.31;4844399;29;20038;-93
2021/11/29 10:17:02;;;;;;;8.93;6.18;;;;;;;11.92;49.99;100586.66;4843791;29;20086;-93
2021/11/29 10:19:28;;;;;;;6.22;4.95;;;;;;;12.20;48.88;100587.31;4843974;29;20429;-93
2021/11/29 10:22:20;;;;;;;6.95;5.05;;;;;;;12.33;47.79;100589.94;4844545;29;20113;-93
2021/11/29 10:24:49;;;;;;;6.35;4.95;;;;;;;11.82;46.67;100590.88;4858731;29;20029;-93
2021/11/29 10:27:15;;;;;;;8.68;5.20;;;;;;;11.87;47.90;100594.84;4858134;29;20116;-95
2021/11/29 10:29:53;;;;;;;8.60;5.90;;;;;;;11.69;48.22;100604.88;4848808;29;20477;-93
2021/11/29 10:32:36;;;;;;;7.85;5.13;;;;;;;10.98;48.23;100595.69;4849104;29;20042;-93
2021/11/29 10:35:02;;;;;;;6.20;4.90;;;;;;;11.09;48.75;100598.44;4850114;29;20095;-95
2021/11/29 10:37:30;;;;;;;5.07;4.40;;;;;;;11.30;47.99;100605.81;4853500;29;20033;-94
2021/11/29 10:39:55;;;;;;;4.88;4.05;;;;;;;11.27;48.29;100613.91;4850122;29;20068;-95
2021/11/29 10:42:25;;;;;;;7.53;4.88;;;;;;;11.51;48.23;100611.38;4854580;29;20112;-94
2021/11/29 10:44:53;;;;;;;5.45;4.85;;;;;;;11.40;46.83;100614.75;4851786;29;20038;-94
2021/11/29 10:47:21;;;;;;;6.35;5.22;;;;;;;11.64;46.15;100614.03;4841154;29;20389;-94
2021/11/29 10:49:53;;;;;;;6.80;5.65;;;;;;;11.69;46.48;100604.03;4842407;29;20053;-96
2021/11/29 10:52:19;;;;;;;;;;;;;;;11.95;47.28;100611.91;4851163;29;20033;-94
2021/11/29 10:54:46;;;;;;;9.15;4.75;;;;;;;12.11;46.79;100604.63;4856873;29;19925;-96
2021/11/29 10:57:13;;;;;;;5.13;3.78;;;;;;;12.10;46.72;100606.44;4843638;29;20377;-95
2021/11/29 10:59:41;;;;;;;5.65;4.40;;;;;;;12.27;46.66;100607.84;4844777;29;20610;-96
2021/11/29 11:02:14;;;;;;;8.40;5.00;;;;;;;12.15;46.05;100597.38;4849405;29;20061;-96
2021/11/29 11:04:42;;;;;;;5.82;4.57;;;;;;;12.09;46.44;100602.09;4846760;29;20045;-94
2021/11/29 11:07:20;;;;;;;9.70;4.95;;;;;;;11.58;47.51;100610.03;4850130;29;20048;-95
2021/11/29 11:09:55;;;;;;;5.75;4.38;;;;;;;11.66;47.26;100601.63;4830918;29;20030;-96
2021/11/29 11:12:23;;;;;;;6.13;4.28;;;;;;;11.77;47.37;100601.72;4830479;29;20019;-96
2021/11/29 11:14:55;;;;;;;5.05;4.07;;;;;;;11.64;46.80;100587.72;4996480;23;20121;-96
2021/11/29 11:25:04;;;;;;;4.03;3.35;;;;;;;11.54;48.05;100595.41;4851335;29;20026;-96
2021/11/29 11:27:34;;;;;;;5.15;2.85;;;;;;;11.36;46.65;100568.59;4946030;23;20049;-96
2021/11/29 12:16:56;;;;;;;1.90;1.65;;;;;;;12.47;44.73;100568.69;4986695;23;20057;-96
2021/11/29 12:19:24;;;;;;;2.88;1.13;;;;;;;12.64;43.17;100565.66;4856612;29;20037;-96
2021/11/29 12:21:53;;;;;;;2.00;1.33;;;;;;;12.31;43.64;100555.81;5116688;23;21867;-96
2021/11/29 12:24:21;;;;;;;2.00;0.88;;;;;;;12.22;45.68;100565.22;4858090;29;20056;-96